Time;durP1;ratioP1;P1;durP2;ratioP2;P2;SDS_P1;SDS_P2;PMS_P1;PMS_P2;Temp;Humidity;BMP_temperature;BMP_pressure;BME280_temperature;BME280_humidity;BME280_pressure;Samples;Min_cycle;Max_cycle;Signal;HPM_P1;HPM_P2
2022/01/23 00:00:46;;;;;;;17.67;2.63;;;6.50;99.90;;;;;;5034843;28;20087;-74
2022/01/23 00:03:19;;;;;;;17.88;2.17;;;6.50;99.90;;;;;;5034982;28;20017;-70
2022/01/23 00:05:47;;;;;;;29.60;5.75;;;6.50;99.90;;;;;;5034983;28;20022;-70
2022/01/23 00:08:15;;;;;;;18.17;2.75;;;6.50;99.90;;;;;;5034695;28;20049;-70
2022/01/23 00:10:41;;;;;;;22.35;5.35;;;6.50;99.90;;;;;;5034514;28;20091;-70
2022/01/23 00:18:18;;;;;;;18.42;3.33;;;6.50;99.90;;;;;;5034361;28;20075;-71
2022/01/23 00:20:43;;;;;;;21.25;3.38;;;6.60;99.90;;;;;;5034574;28;20021;-71
2022/01/23 00:23:29;;;;;;;22.98;3.55;;;6.60;99.90;;;;;;5034295;28;20030;-71
2022/01/23 00:31:24;;;;;;;23.70;4.68;;;6.60;99.90;;;;;;5034224;28;20060;-71
2022/01/23 00:33:54;;;;;;;27.00;5.07;;;6.60;99.90;;;;;;5034101;28;20026;-71
2022/01/23 00:36:21;;;;;;;22.77;4.32;;;6.60;99.90;;;;;;5034065;28;20049;-71
2022/01/23 00:38:47;;;;;;;22.60;4.68;;;6.60;99.90;;;;;;5033878;28;20478;-71
2022/01/23 00:41:12;;;;;;;26.58;4.03;;;6.60;99.90;;;;;;5016254;28;20075;-71
2022/01/23 00:43:41;;;;;;;27.00;3.97;;;6.60;99.90;;;;;;5033904;28;20056;-71
2022/01/23 00:46:22;;;;;;;30.38;3.85;;;6.60;99.90;;;;;;5033892;28;20386;-71
2022/01/23 00:51:34;;;;;;;19.95;4.47;;;6.60;99.90;;;;;;5034140;28;20033;-71
2022/01/23 00:54:02;;;;;;;20.27;3.47;;;6.50;99.90;;;;;;5033819;28;20018;-71
2022/01/23 00:56:28;;;;;;;20.20;3.88;;;6.50;99.90;;;;;;5033664;28;20026;-71
2022/01/23 00:58:54;;;;;;;22.83;5.10;;;6.60;99.90;;;;;;5033535;28;20025;-71
2022/01/23 01:01:19;;;;;;;19.42;3.60;;;6.60;99.90;;;;;;5033997;28;20026;-71
2022/01/23 01:03:45;;;;;;;12.65;3.00;;;6.60;99.90;;;;;;5033680;28;20057;-71
2022/01/23 01:06:12;;;;;;;13.15;4.13;;;6.60;99.90;;;;;;5034113;28;20025;-71
2022/01/23 01:08:38;;;;;;;24.67;6.25;;;6.60;99.90;;;;;;5033873;28;20025;-71
2022/01/23 01:13:51;;;;;;;31.70;5.70;;;6.50;99.90;;;;;;5033755;28;20381;-71
2022/01/23 01:35:32;;;;;;;19.63;4.55;;;6.50;99.90;;;;;;5033327;28;20096;-71
2022/01/23 01:37:58;;;;;;;28.98;6.25;;;6.50;99.90;;;;;;5033381;28;20017;-71
2022/01/23 01:40:24;;;;;;;17.60;5.80;;;6.50;99.90;;;;;;5033203;28;20029;-71
2022/01/23 01:42:51;;;;;;;13.50;4.70;;;6.50;99.90;;;;;;5033443;28;20031;-71
2022/01/23 01:45:24;;;;;;;16.45;4.20;;;6.50;99.90;;;;;;5033176;28;20068;-71
2022/01/23 01:47:50;;;;;;;;;;;6.50;99.90;;;;;;5033682;28;20034;-71
2022/01/23 01:50:16;;;;;;;16.83;4.93;;;6.50;99.90;;;;;;5104150;22;19921;-69
2022/01/23 01:52:42;;;;;;;16.92;4.28;;;6.40;99.90;;;;;;5053114;28;20063;-70
2022/01/23 01:55:11;;;;;;;30.20;6.28;;;6.50;99.90;;;;;;5053053;28;20081;-69
2022/01/23 01:57:43;;;;;;;19.80;5.57;;;6.60;99.90;;;;;;5053308;28;20469;-68
2022/01/23 02:08:26;;;;;;;18.40;3.60;;;6.60;99.90;;;;;;5053411;28;20040;-70
2022/01/23 02:11:06;;;;;;;15.23;3.55;;;6.60;99.90;;;;;;5053231;28;20017;-69
2022/01/23 02:13:36;;;;;;;21.33;3.85;;;6.60;99.90;;;;;;5053478;28;20047;-70
2022/01/23 02:16:31;;;;;;;14.27;3.90;;;6.60;99.90;;;;;;5053738;28;20025;-70
2022/01/23 02:56:52;;;;;;;35.53;8.10;;;6.60;99.90;;;;;;5056007;28;20109;-70
2022/01/23 02:59:23;;;;;;;38.10;9.68;;;6.70;99.90;;;;;;5055925;28;20028;-70
2022/01/23 03:02:11;;;;;;;37.33;10.55;;;6.60;99.90;;;;;;5056155;28;20445;-70
2022/01/23 03:04:40;;;;;;;30.48;9.10;;;6.60;99.90;;;;;;5055803;28;20113;-69
2022/01/23 03:07:17;;;;;;;41.53;9.77;;;6.70;99.90;;;;;;5055720;28;20388;-69
2022/01/23 03:09:54;;;;;;;28.23;10.25;;;6.70;99.90;;;;;;5055917;28;20496;-69
2022/01/23 03:15:05;;;;;;;36.92;9.93;;;6.70;99.90;;;;;;5055902;28;20045;-70
2022/01/23 03:28:37;;;;;;;29.58;9.02;;;6.70;99.90;;;;;;5054776;28;20388;-70
2022/01/23 03:33:29;;;;;;;33.28;7.93;;;6.70;99.90;;;;;;5055814;28;20025;-69
2022/01/23 03:35:55;;;;;;;28.88;6.20;;;6.70;99.90;;;;;;5055215;28;20017;-68
2022/01/23 03:38:20;;;;;;;22.45;5.68;;;6.70;99.90;;;;;;5055003;28;20104;-70
2022/01/23 03:40:46;;;;;;;26.60;4.40;;;6.80;99.90;;;;;;5055220;28;20047;-70
2022/01/23 03:43:12;;;;;;;22.58;4.43;;;6.80;99.90;;;;;;5055213;28;20446;-69
2022/01/23 03:50:41;;;;;;;19.02;4.05;;;6.90;99.90;;;;;;5055063;28;20029;-69
2022/01/23 03:53:06;;;;;;;16.10;3.88;;;6.90;99.90;;;;;;5055186;28;20104;-67
2022/01/23 03:55:33;;;;;;;20.10;4.72;;;6.90;99.90;;;;;;5054832;28;20063;-68
2022/01/23 03:57:58;;;;;;;31.85;5.55;;;6.90;99.90;;;;;;5054991;28;20519;-69
2022/01/23 04:00:24;;;;;;;11.50;4.75;;;6.90;99.90;;;;;;5054755;28;20025;-70
2022/01/23 04:02:50;;;;;;;17.55;5.75;;;6.90;99.90;;;;;;5055022;28;20025;-69
2022/01/23 04:05:16;;;;;;;21.35;6.15;;;6.90;99.90;;;;;;5054678;28;20025;-69
2022/01/23 04:07:42;;;;;;;28.13;8.10;;;6.90;99.90;;;;;;5054584;28;20545;-69
2022/01/23 04:10:10;;;;;;;36.63;7.78;;;6.90;99.90;;;;;;5054501;28;20051;-70
2022/01/23 04:12:50;;;;;;;30.35;9.32;;;6.90;99.90;;;;;;5054460;28;20024;-68
2022/01/23 04:15:49;;;;;;;25.38;6.85;;;6.90;99.90;;;;;;5054694;28;20108;-69
2022/01/23 04:34:34;;;;;;;35.92;5.85;;;7.00;99.90;;;;;;5054676;28;20361;-70
2022/01/23 05:04:23;;;;;;;34.75;6.10;;;6.90;99.90;;;;;;5053870;28;20056;-69
2022/01/23 05:07:03;;;;;;;28.80;6.60;;;7.00;99.90;;;;;;5053578;28;20107;-69
2022/01/23 05:09:30;;;;;;;32.72;4.50;;;6.90;99.90;;;;;;5053761;28;20370;-69
2022/01/23 05:12:14;;;;;;;17.52;4.18;;;7.00;99.90;;;;;;5053539;28;20104;-69
2022/01/23 05:14:43;;;;;;;21.42;4.28;;;6.90;99.90;;;;;;5053492;28;20025;-69
2022/01/23 05:17:12;;;;;;;26.00;6.32;;;6.90;99.90;;;;;;5054081;28;20406;-68
2022/01/23 05:19:39;;;;;;;13.85;3.15;;;6.80;99.90;;;;;;5053484;28;20025;-69
2022/01/23 05:24:38;;;;;;;29.50;6.25;;;6.90;99.90;;;;;;5053904;28;20074;-69
2022/01/23 05:27:06;;;;;;;21.98;4.43;;;6.90;99.90;;;;;;5053443;28;20477;-68
2022/01/23 05:29:32;;;;;;;16.05;2.50;;;6.90;99.90;;;;;;5053243;28;20120;-69
2022/01/23 05:31:58;;;;;;;19.17;2.53;;;6.90;99.90;;;;;;5053255;28;20057;-69
2022/01/23 05:34:25;;;;;;;29.80;3.33;;;6.90;99.90;;;;;;5053247;28;20021;-69
2022/01/23 05:36:51;;;;;;;13.43;2.38;;;6.90;99.90;;;;;;5053268;28;20472;-68
2022/01/23 05:39:22;;;;;;;18.13;2.55;;;6.90;99.90;;;;;;5053082;28;20047;-69
2022/01/23 05:41:57;;;;;;;7.97;2.55;;;6.90;99.90;;;;;;5053511;28;20025;-69
2022/01/23 05:44:23;;;;;;;20.55;2.42;;;6.90;99.90;;;;;;5053198;28;20028;-69
2022/01/23 05:46:49;;;;;;;12.82;3.10;;;6.90;99.90;;;;;;5053439;28;20021;-69
2022/01/23 05:49:14;;;;;;;10.30;2.58;;;6.90;99.90;;;;;;5053114;28;20041;-69
2022/01/23 05:51:40;;;;;;;32.78;3.88;;;6.90;99.90;;;;;;5056515;28;20512;-69
2022/01/23 05:54:05;;;;;;;19.40;3.05;;;6.90;99.90;;;;;;5057652;28;20036;-68
2022/01/23 05:56:31;;;;;;;17.42;3.38;;;7.00;99.90;;;;;;5057078;28;20028;-69
2022/01/23 05:58:57;;;;;;;11.48;3.40;;;6.90;99.90;;;;;;5056915;28;20032;-69
2022/01/23 06:01:23;;;;;;;22.45;3.35;;;6.90;99.90;;;;;;5057135;28;20079;-69
2022/01/23 06:03:49;;;;;;;21.40;2.78;;;6.90;99.90;;;;;;5057536;28;20412;-68
2022/01/23 06:06:14;;;;;;;21.30;3.42;;;7.00;99.90;;;;;;5039061;28;20362;-69
2022/01/23 06:08:40;;;;;;;21.98;4.60;;;7.00;99.90;;;;;;5056816;28;20373;-70
2022/01/23 06:11:05;;;;;;;20.00;4.10;;;6.90;99.90;;;;;;5056811;28;20123;-68
2022/01/23 06:13:32;;;;;;;27.58;3.67;;;6.90;99.90;;;;;;5057029;28;20147;-69
2022/01/23 06:15:58;;;;;;;19.23;4.10;;;6.90;99.90;;;;;;5056711;28;20028;-69
2022/01/23 06:18:24;;;;;;;28.48;3.65;;;6.90;99.90;;;;;;5056494;28;20025;-69
2022/01/23 06:20:50;;;;;;;18.15;4.40;;;6.90;99.90;;;;;;5056912;28;20048;-69
2022/01/23 06:23:17;;;;;;;18.17;4.05;;;7.00;99.90;;;;;;5056867;28;20039;-69
2022/01/23 06:25:47;;;;;;;16.23;3.35;;;7.00;99.90;;;;;;5056557;28;20523;-69
2022/01/23 06:28:21;;;;;;;28.55;5.07;;;6.90;99.90;;;;;;5056485;28;20025;-69
2022/01/23 06:30:46;;;;;;;20.25;4.55;;;6.90;99.90;;;;;;5056486;28;20388;-69
2022/01/23 06:33:12;;;;;;;23.77;3.72;;;6.90;99.90;;;;;;5056399;28;20036;-69
2022/01/23 06:35:38;;;;;;;22.33;4.88;;;6.80;99.90;;;;;;5056597;28;20055;-69
2022/01/23 06:38:03;;;;;;;17.83;4.75;;;6.80;99.90;;;;;;5056270;28;20491;-69
2022/01/23 06:40:29;;;;;;;30.17;5.20;;;6.80;99.90;;;;;;5056176;28;20032;-69
2022/01/23 06:42:54;;;;;;;33.20;6.80;;;6.70;99.90;;;;;;5056226;28;20017;-69
2022/01/23 06:45:20;;;;;;;30.73;5.32;;;6.50;99.90;;;;;;5056230;28;20021;-69
2022/01/23 06:47:46;;;;;;;23.45;5.30;;;6.50;99.90;;;;;;5056097;28;20032;-69
2022/01/23 06:50:11;;;;;;;41.33;6.57;;;6.30;99.90;;;;;;5056093;28;20033;-69
2022/01/23 06:52:37;;;;;;;40.03;6.13;;;6.10;99.90;;;;;;5056288;28;20052;-69
2022/01/23 06:55:03;;;;;;;44.58;5.47;;;6.00;99.90;;;;;;5055972;28;20076;-69
2022/01/23 06:57:28;;;;;;;38.55;6.00;;;5.90;99.90;;;;;;5056096;28;20037;-69
2022/01/23 06:59:54;;;;;;;52.20;7.07;;;5.80;99.90;;;;;;5056088;28;20122;-69
2022/01/23 07:02:19;;;;;;;60.92;7.20;;;5.70;99.90;;;;;;5055018;28;20506;-69
2022/01/23 07:04:45;;;;;;;54.70;7.13;;;5.70;99.90;;;;;;5037867;28;20108;-69
2022/01/23 07:07:10;;;;;;;51.20;6.80;;;5.70;99.90;;;;;;5055790;28;20049;-69
2022/01/23 07:09:36;;;;;;;47.47;7.03;;;5.70;99.90;;;;;;5055919;28;20104;-69
2022/01/23 07:12:01;;;;;;;47.05;7.65;;;5.60;99.90;;;;;;5055610;28;20051;-69
2022/01/23 07:14:27;;;;;;;49.42;8.25;;;5.50;99.90;;;;;;5055536;28;20056;-69
2022/01/23 07:16:53;;;;;;;47.20;7.95;;;5.50;99.90;;;;;;5055868;28;20017;-69
2022/01/23 07:19:18;;;;;;;26.17;6.97;;;5.40;99.90;;;;;;5055558;28;20033;-68
2022/01/23 07:21:44;;;;;;;66.88;11.13;;;5.30;99.90;;;;;;5055524;28;20028;-69
2022/01/23 07:24:10;;;;;;;55.35;10.60;;;5.30;99.90;;;;;;5055441;28;20028;-68
2022/01/23 07:26:36;;;;;;;68.57;8.23;;;5.20;99.90;;;;;;5055396;28;20021;-68
2022/01/23 07:29:04;;;;;;;46.15;8.25;;;5.20;99.90;;;;;;5055449;28;20400;-68
2022/01/23 07:31:55;;;;;;;39.92;8.85;;;5.10;99.90;;;;;;5055226;28;20534;-69
2022/01/23 07:34:17;;;;;;;59.85;9.15;;;5.00;99.90;;;;;;5055039;28;20052;-69
2022/01/23 07:36:43;;;;;;;30.65;7.65;;;4.90;99.90;;;;;;5055723;28;20465;-69
2022/01/23 07:39:09;;;;;;;35.58;8.18;;;4.80;99.90;;;;;;5055013;28;20021;-69
2022/01/23 07:41:34;;;;;;;41.20;8.05;;;4.80;99.90;;;;;;5055162;28;20025;-69
2022/01/23 07:44:00;;;;;;;55.67;10.27;;;4.80;99.90;;;;;;5055066;28;20472;-69
2022/01/23 07:46:26;;;;;;;57.10;9.88;;;4.80;99.90;;;;;;5055013;28;20465;-68
2022/01/23 07:48:52;;;;;;;60.30;9.18;;;4.90;99.90;;;;;;5096544;22;20481;-70
2022/01/23 07:51:17;;;;;;;44.17;10.20;;;4.80;99.90;;;;;;5034546;28;20041;-70
2022/01/23 07:53:43;;;;;;;57.28;11.00;;;4.80;99.90;;;;;;5034972;28;20029;-70
2022/01/23 07:56:08;;;;;;;74.18;10.95;;;4.70;99.90;;;;;;5034896;28;20034;-70
2022/01/23 07:58:34;;;;;;;68.40;11.52;;;4.60;99.90;;;;;;5034771;28;20116;-70
2022/01/23 08:01:00;;;;;;;69.95;12.85;;;4.60;99.90;;;;;;5034751;28;20034;-70
2022/01/23 08:03:25;;;;;;;74.05;13.50;;;4.60;99.90;;;;;;5017003;28;20445;-70
2022/01/23 08:05:51;;;;;;;57.63;12.43;;;4.60;99.90;;;;;;5034705;28;20044;-70
2022/01/23 08:08:17;;;;;;;75.70;14.07;;;4.70;99.90;;;;;;5034672;28;20053;-70
2022/01/23 08:10:42;;;;;;;53.28;12.18;;;4.70;99.90;;;;;;5034528;28;20029;-70
2022/01/23 08:13:08;;;;;;;64.63;12.43;;;4.70;99.90;;;;;;5035075;28;20121;-70
2022/01/23 08:15:34;;;;;;;64.00;11.90;;;4.70;99.90;;;;;;5034511;28;20065;-70
2022/01/23 08:18:02;;;;;;;73.47;12.20;;;4.90;99.90;;;;;;5034675;28;20550;-70
2022/01/23 08:20:28;;;;;;;57.58;12.02;;;4.90;99.90;;;;;;5034620;28;20112;-70
2022/01/23 08:22:54;;;;;;;67.78;14.25;;;5.00;99.90;;;;;;5034547;28;20021;-70
2022/01/23 08:25:20;;;;;;;72.82;12.60;;;5.00;99.90;;;;;;5034380;28;20156;-70
2022/01/23 08:27:46;;;;;;;70.13;11.98;;;5.00;99.90;;;;;;5034547;28;20037;-70
2022/01/23 08:30:14;;;;;;;60.67;11.52;;;5.10;99.90;;;;;;5034204;28;20029;-70
2022/01/23 08:32:40;;;;;;;62.90;11.80;;;5.10;99.90;;;;;;5034168;28;20029;-70
2022/01/23 08:35:06;;;;;;;67.13;10.55;;;5.10;99.90;;;;;;5034429;28;20041;-70
2022/01/23 08:37:32;;;;;;;61.38;11.43;;;5.10;99.90;;;;;;5034298;28;20029;-70
2022/01/23 08:39:57;;;;;;;69.40;11.73;;;5.10;99.90;;;;;;5034032;28;20536;-70
2022/01/23 08:42:23;;;;;;;54.70;12.07;;;5.10;99.90;;;;;;5034061;28;20465;-70
2022/01/23 08:44:50;;;;;;;68.05;10.07;;;5.10;99.90;;;;;;5033991;28;20017;-69
2022/01/23 08:47:17;;;;;;;44.22;9.63;;;5.10;99.90;;;;;;5033939;28;20017;-70
2022/01/23 08:49:46;;;;;;;58.03;10.27;;;5.10;99.90;;;;;;5033916;28;20477;-70
2022/01/23 08:52:17;;;;;;;55.83;9.93;;;5.30;99.90;;;;;;5033923;28;20396;-70
2022/01/23 08:54:45;;;;;;;63.75;10.23;;;5.40;99.90;;;;;;5034096;28;20018;-70
2022/01/23 08:57:11;;;;;;;61.05;9.52;;;5.40;99.90;;;;;;5015968;28;20057;-70
2022/01/23 08:59:37;;;;;;;54.58;9.13;;;5.50;99.90;;;;;;5033674;28;20059;-70
2022/01/23 09:02:03;;;;;;;74.03;9.13;;;5.50;99.90;;;;;;5033705;28;20021;-70
2022/01/23 09:04:28;;;;;;;52.78;10.30;;;5.50;99.90;;;;;;5034202;28;20087;-70
2022/01/23 09:06:55;;;;;;;61.67;10.55;;;5.50;99.90;;;;;;5033626;28;20037;-70
2022/01/23 09:09:23;;;;;;;37.35;8.82;;;5.50;99.90;;;;;;5033508;28;20036;-70
2022/01/23 09:12:08;;;;;;;45.85;8.38;;;5.50;99.90;;;;;;5033834;28;20469;-70
2022/01/23 09:14:34;;;;;;;46.75;10.05;;;5.60;99.90;;;;;;5033858;28;20052;-70
2022/01/23 09:17:02;;;;;;;53.35;8.63;;;5.60;99.90;;;;;;5033416;28;20030;-70
2022/01/23 09:19:28;;;;;;;67.97;9.60;;;5.70;99.90;;;;;;5033606;28;20111;-70
2022/01/23 09:21:55;;;;;;;46.63;9.20;;;5.80;99.90;;;;;;5033702;28;20466;-70
2022/01/23 09:24:22;;;;;;;47.03;8.50;;;5.80;99.90;;;;;;5033537;28;20030;-70
2022/01/23 09:26:53;;;;;;;43.05;8.43;;;5.90;99.90;;;;;;5015400;28;20018;-70
2022/01/23 09:29:31;;;;;;;46.80;8.23;;;6.00;99.90;;;;;;5033724;28;20076;-70
2022/01/23 09:31:57;;;;;;;61.47;9.38;;;6.00;99.90;;;;;;5033633;28;20025;-70
2022/01/23 09:34:25;;;;;;;54.55;9.75;;;6.10;99.90;;;;;;5033328;28;20109;-70
2022/01/23 09:36:56;;;;;;;38.25;7.03;;;6.20;99.90;;;;;;5033277;28;20029;-70
2022/01/23 09:39:22;;;;;;;48.17;8.65;;;6.30;99.90;;;;;;5033345;28;20021;-70
2022/01/23 09:42:10;;;;;;;46.40;7.07;;;6.30;99.90;;;;;;5033232;28;20028;-70
2022/01/23 09:44:44;;;;;;;43.67;7.32;;;6.40;99.90;;;;;;5033271;28;20025;-70
2022/01/23 09:47:14;;;;;;;43.03;7.32;;;6.40;99.90;;;;;;5033248;28;20469;-70
2022/01/23 09:49:42;;;;;;;29.45;7.05;;;6.50;99.90;;;;;;5032985;28;20037;-70
2022/01/23 09:52:10;;;;;;;50.72;6.55;;;6.40;99.90;;;;;;5033167;28;20061;-70
2022/01/23 09:54:38;;;;;;;29.65;6.07;;;6.50;99.90;;;;;;5033141;28;20045;-70
2022/01/23 09:57:05;;;;;;;35.67;5.63;;;6.50;99.90;;;;;;5033079;28;20060;-70
2022/01/23 09:59:31;;;;;;;49.42;6.35;;;6.60;99.90;;;;;;5032960;28;20041;-70
2022/01/23 10:01:57;;;;;;;47.30;7.78;;;6.50;99.90;;;;;;5033332;28;20057;-70
2022/01/23 10:04:25;;;;;;;38.17;5.80;;;6.60;99.90;;;;;;5033051;28;20021;-70
2022/01/23 10:06:54;;;;;;;39.15;7.05;;;6.70;99.90;;;;;;5032934;28;20076;-70
2022/01/23 10:09:27;;;;;;;31.33;6.10;;;6.70;99.90;;;;;;5033092;28;20517;-70
2022/01/23 10:11:53;;;;;;;25.08;6.03;;;6.80;99.90;;;;;;5033300;28;20025;-70
2022/01/23 10:14:20;;;;;;;21.60;5.63;;;6.90;99.90;;;;;;5033213;28;20029;-70
2022/01/23 10:16:46;;;;;;;33.53;5.90;;;7.10;99.90;;;;;;5033466;28;20373;-70
2022/01/23 10:19:14;;;;;;;36.13;6.20;;;7.20;99.90;;;;;;5032730;28;20029;-70
2022/01/23 10:21:40;;;;;;;42.05;5.88;;;7.30;99.90;;;;;;5032930;28;20026;-70
2022/01/23 10:24:07;;;;;;;23.48;5.00;;;7.40;99.90;;;;;;5033105;28;20497;-70
2022/01/23 10:26:48;;;;;;;35.03;4.60;;;7.50;99.90;;;;;;5033041;28;20017;-70
2022/01/23 10:29:16;;;;;;;25.38;5.38;;;7.40;99.90;;;;;;5033042;28;20065;-70
2022/01/23 10:32:03;;;;;;;26.25;3.97;;;7.40;99.90;;;;;;5033045;28;20030;-70
2022/01/23 10:34:45;;;;;;;20.85;3.88;;;7.40;99.90;;;;;;5032776;28;20032;-70
2022/01/23 10:37:22;;;;;;;27.48;3.60;;;7.50;99.90;;;;;;5033641;28;20037;-70
2022/01/23 10:39:47;;;;;;;21.17;3.55;;;7.50;99.90;;;;;;5036509;28;20536;-70
2022/01/23 10:48:36;;;;;;;18.30;3.20;;;7.70;99.90;;;;;;5036787;28;20132;-70
2022/01/23 10:51:26;;;;;;;16.63;2.97;;;7.70;99.90;;;;;;5035921;28;20038;-70
2022/01/23 10:54:13;;;;;;;12.93;2.10;;;7.90;99.90;;;;;;5036404;28;20045;-70
2022/01/23 10:56:54;;;;;;;23.45;3.85;;;7.90;99.90;;;;;;5036054;28;20382;-70
2022/01/23 10:59:21;;;;;;;21.60;3.30;;;7.90;99.90;;;;;;5036328;28;20028;-70
2022/01/23 11:01:58;;;;;;;15.55;3.20;;;7.90;99.90;;;;;;5035959;28;20036;-70
2022/01/23 11:04:24;;;;;;;20.85;2.95;;;7.90;99.90;;;;;;5036199;28;20057;-70
2022/01/23 11:06:51;;;;;;;18.95;3.90;;;7.90;99.90;;;;;;5018137;28;20057;-70
2022/01/23 11:09:17;;;;;;;18.00;3.72;;;8.00;99.90;;;;;;5018007;28;20487;-70
2022/01/23 11:11:47;;;;;;;14.25;3.00;;;8.00;99.90;;;;;;5035784;28;20080;-70
2022/01/23 11:17:25;;;;;;;15.40;3.55;;;8.10;99.90;;;;;;5036039;28;20083;-70
2022/01/23 11:20:00;;;;;;;13.85;2.92;;;8.00;99.90;;;;;;5035834;28;20026;-70
2022/01/23 11:22:30;;;;;;;19.58;3.53;;;8.00;99.90;;;;;;5035729;28;20056;-70
2022/01/23 11:25:03;;;;;;;14.75;2.17;;;8.10;99.90;;;;;;5035603;28;20045;-70
2022/01/23 11:27:37;;;;;;;20.85;3.47;;;8.00;99.90;;;;;;5035913;28;20484;-70
2022/01/23 11:30:10;;;;;;;16.83;3.00;;;8.00;99.90;;;;;;5035445;28;20545;-70
2022/01/23 11:32:40;;;;;;;23.52;3.55;;;8.00;99.90;;;;;;5035465;28;20470;-70
2022/01/23 11:35:13;;;;;;;25.52;3.28;;;8.00;99.90;;;;;;5017657;28;20026;-70
2022/01/23 11:37:49;;;;;;;16.25;2.90;;;7.90;99.90;;;;;;5035575;28;20032;-70
2022/01/23 11:50:33;;;;;;;13.82;2.70;;;8.00;99.90;;;;;;5035392;28;20060;-70
2022/01/23 11:54:03;;;;;;;22.50;4.85;;;7.90;99.90;;;;;;5034987;28;20374;-70
2022/01/23 11:56:42;;;;;;;22.60;4.40;;;7.80;99.90;;;;;;5034991;28;20060;-70
2022/01/23 11:59:29;;;;;;;23.92;5.30;;;7.80;99.90;;;;;;5034885;28;20370;-70
2022/01/23 12:02:11;;;;;;;26.48;5.07;;;7.80;99.90;;;;;;5035154;28;20028;-70
2022/01/23 12:04:41;;;;;;;32.50;7.63;;;7.80;99.90;;;;;;5034817;28;20045;-70
2022/01/23 12:07:12;;;;;;;27.80;7.00;;;7.80;99.90;;;;;;5034701;28;20029;-69
2022/01/23 12:09:41;;;;;;;29.52;5.60;;;7.60;99.90;;;;;;5017986;28;20036;-69
2022/01/23 12:12:21;;;;;;;27.67;6.80;;;7.60;99.90;;;;;;5016904;28;20053;-69
2022/01/23 12:17:38;;;;;;;23.77;5.22;;;7.60;99.90;;;;;;5034603;28;20028;-69
2022/01/23 12:20:04;;;;;;;29.65;6.85;;;7.60;99.90;;;;;;5034550;28;20029;-69
2022/01/23 12:22:34;;;;;;;31.50;5.72;;;7.60;99.90;;;;;;5034438;28;20022;-69
2022/01/23 12:25:06;;;;;;;28.25;5.47;;;7.60;99.90;;;;;;5034716;28;20021;-69
2022/01/23 12:27:31;;;;;;;27.67;5.68;;;7.60;99.90;;;;;;5034610;28;20026;-69
2022/01/23 12:30:14;;;;;;;28.98;5.28;;;7.60;99.90;;;;;;5034259;28;20017;-69
2022/01/23 12:32:40;;;;;;;21.35;5.28;;;7.60;99.90;;;;;;5034636;28;20496;-69
2022/01/23 12:35:08;;;;;;;29.33;4.75;;;7.50;99.90;;;;;;5034256;28;20424;-69
2022/01/23 12:37:55;;;;;;;25.90;4.45;;;7.50;99.90;;;;;;5034354;28;20021;-71
2022/01/23 12:40:29;;;;;;;20.92;4.65;;;7.50;99.90;;;;;;5034020;28;20112;-70
2022/01/23 12:43:11;;;;;;;19.58;5.18;;;7.50;99.90;;;;;;5034180;28;20092;-71
2022/01/23 12:46:00;;;;;;;26.58;4.45;;;7.50;99.90;;;;;;5034033;28;20029;-71
2022/01/23 12:48:26;;;;;;;26.52;5.60;;;7.40;99.90;;;;;;5034004;28;20029;-71
2022/01/23 12:51:01;;;;;;;30.42;4.72;;;7.50;99.90;;;;;;5033770;28;20033;-72
2022/01/23 12:53:45;;;;;;;22.63;4.45;;;7.50;99.90;;;;;;5033836;28;20084;-72
2022/01/23 12:56:13;;;;;;;16.30;4.57;;;7.50;99.90;;;;;;5034356;28;20041;-72
2022/01/23 12:58:39;;;;;;;30.98;6.07;;;7.40;99.90;;;;;;5033684;28;20481;-71
2022/01/23 13:01:20;;;;;;;28.67;4.72;;;7.40;99.90;;;;;;5033031;28;20101;-71
2022/01/23 13:03:57;;;;;;;21.52;4.13;;;7.40;99.90;;;;;;5033756;28;20025;-71
2022/01/23 13:06:30;;;;;;;48.08;6.10;;;7.40;99.90;;;;;;5033928;28;20044;-71
2022/01/23 13:30:38;;;;;;;25.00;4.95;;;7.20;99.90;;;;;;5033960;28;20030;-73
2022/01/23 13:33:10;;;;;;;23.33;5.28;;;7.20;99.90;;;;;;5033337;28;20025;-73
2022/01/23 13:35:40;;;;;;;14.40;4.07;;;7.20;99.90;;;;;;5033650;28;20049;-72
2022/01/23 13:38:10;;;;;;;21.50;4.50;;;7.30;99.90;;;;;;5033482;28;20021;-72
2022/01/23 13:40:40;;;;;;;23.75;4.90;;;7.20;99.90;;;;;;5033510;28;20472;-73
2022/01/23 13:51:37;;;;;;;25.80;7.63;;;7.20;99.90;;;;;;5033784;28;20052;-73
2022/01/23 13:57:33;;;;;;;22.85;8.27;;;7.20;99.90;;;;;;5033203;28;20470;-73
2022/01/23 14:02:26;;;;;;;33.58;7.65;;;7.20;99.90;;;;;;5033458;28;20030;-73
2022/01/23 14:04:51;;;;;;;26.35;6.18;;;7.20;99.90;;;;;;5033053;28;20432;-74
2022/01/23 14:07:26;;;;;;;24.75;5.43;;;7.20;99.90;;;;;;5015644;28;20391;-72
2022/01/23 14:09:56;;;;;;;21.58;5.30;;;7.20;99.90;;;;;;5032960;28;20478;-73
2022/01/23 14:12:24;;;;;;;20.35;5.53;;;7.10;99.90;;;;;;5035879;28;20040;-72
2022/01/23 14:15:04;;;;;;;23.35;4.85;;;7.10;99.90;;;;;;5036873;28;20029;-72
2022/01/23 14:17:38;;;;;;;29.33;5.97;;;7.10;99.90;;;;;;5036823;28;20030;-72
2022/01/23 14:20:08;;;;;;;29.25;5.55;;;7.20;99.90;;;;;;5036804;28;20108;-72
2022/01/23 14:22:36;;;;;;;32.35;5.82;;;7.10;99.90;;;;;;5036972;28;20045;-72
2022/01/23 14:25:19;;;;;;;19.88;4.65;;;7.10;99.90;;;;;;5036635;28;20045;-72
2022/01/23 14:27:48;;;;;;;23.63;5.43;;;7.10;99.90;;;;;;5036997;28;20022;-72
2022/01/23 14:30:20;;;;;;;21.73;4.90;;;7.10;99.90;;;;;;5036780;28;20123;-72
2022/01/23 14:32:50;;;;;;;25.67;5.25;;;7.10;99.90;;;;;;5037084;28;20072;-72
2022/01/23 14:35:27;;;;;;;26.30;6.57;;;7.10;99.90;;;;;;5036400;28;20071;-72
2022/01/23 14:38:06;;;;;;;23.17;5.43;;;7.10;99.90;;;;;;5036401;28;20029;-72
2022/01/23 14:40:32;;;;;;;26.95;5.57;;;7.10;99.90;;;;;;5036359;28;20075;-72
2022/01/23 14:43:11;;;;;;;40.65;6.63;;;7.10;99.90;;;;;;5036323;28;20397;-72
2022/01/23 14:45:46;;;;;;;27.33;4.65;;;7.00;99.90;;;;;;5018538;28;20500;-72
2022/01/23 14:48:12;;;;;;;21.98;4.10;;;7.00;99.90;;;;;;5036783;28;20461;-74
2022/01/23 14:50:44;;;;;;;21.10;4.93;;;7.00;99.90;;;;;;5036083;28;20048;-72
2022/01/23 14:53:12;;;;;;;23.48;3.78;;;7.00;99.90;;;;;;5036721;28;20378;-72
2022/01/23 14:55:44;;;;;;;16.02;3.78;;;6.90;99.90;;;;;;5036078;28;20432;-72
2022/01/23 14:58:12;;;;;;;38.53;4.75;;;7.00;99.90;;;;;;5036273;28;20026;-72
2022/01/23 15:00:39;;;;;;;22.30;3.70;;;6.90;99.90;;;;;;5036215;28;20025;-72
2022/01/23 15:03:06;;;;;;;19.65;3.40;;;6.80;99.90;;;;;;5036224;28;20124;-72
2022/01/23 15:05:34;;;;;;;56.20;25.77;;;6.80;99.90;;;;;;5035853;28;20021;-72
2022/01/23 15:08:01;;;;;;;26.42;8.50;;;6.80;99.90;;;;;;5035874;28;20065;-72
2022/01/23 15:10:29;;;;;;;32.78;8.23;;;6.80;99.90;;;;;;5035747;28;20036;-72
2022/01/23 15:12:55;;;;;;;30.77;8.90;;;6.70;99.90;;;;;;5036130;28;20119;-71
2022/01/23 15:15:20;;;;;;;13.20;6.53;;;6.70;99.90;;;;;;5035769;28;20032;-72
2022/01/23 15:17:46;;;;;;;22.48;8.63;;;6.70;99.90;;;;;;5035595;28;20044;-72
2022/01/23 15:20:12;;;;;;;21.88;6.07;;;6.60;99.90;;;;;;5035935;28;20029;-72
2022/01/23 15:22:38;;;;;;;20.63;4.45;;;6.70;99.90;;;;;;5034964;28;20049;-72
2022/01/23 15:25:06;;;;;;;21.00;5.00;;;6.60;99.90;;;;;;5035564;28;20049;-72
2022/01/23 15:27:32;;;;;;;27.90;6.53;;;6.60;99.90;;;;;;5035552;28;20022;-72
2022/01/23 15:29:58;;;;;;;11.80;3.03;;;6.60;99.90;;;;;;5035449;28;20029;-72
2022/01/23 15:32:24;;;;;;;14.15;2.60;;;6.50;99.90;;;;;;5035448;28;20024;-73
2022/01/23 15:34:50;;;;;;;16.23;3.95;;;6.50;99.90;;;;;;5035376;28;20055;-72
2022/01/23 15:37:16;;;;;;;14.00;3.33;;;6.50;99.90;;;;;;5035584;28;20025;-72
2022/01/23 15:39:42;;;;;;;13.95;2.65;;;6.50;99.90;;;;;;5035173;28;20496;-71
2022/01/23 15:42:08;;;;;;;12.98;3.22;;;6.40;99.90;;;;;;5035561;28;20033;-72
2022/01/23 15:44:35;;;;;;;14.73;3.35;;;6.50;99.90;;;;;;5035241;28;20080;-72
2022/01/23 15:47:01;;;;;;;15.70;4.50;;;6.50;99.90;;;;;;5035195;28;20021;-72
2022/01/23 15:49:26;;;;;;;18.00;3.47;;;6.40;99.90;;;;;;5034917;28;20592;-72
2022/01/23 15:51:52;;;;;;;11.15;2.75;;;6.40;99.90;;;;;;5035382;28;20037;-72
2022/01/23 15:54:19;;;;;;;12.73;3.13;;;6.40;99.90;;;;;;5035011;28;20036;-72
2022/01/23 15:56:48;;;;;;;18.65;2.95;;;6.30;99.90;;;;;;5035523;28;20022;-72
2022/01/23 15:59:18;;;;;;;11.63;2.45;;;6.30;99.90;;;;;;5034804;28;20017;-73
2022/01/23 16:01:49;;;;;;;13.75;2.83;;;6.30;99.90;;;;;;5034888;28;20014;-73
2022/01/23 16:04:18;;;;;;;10.90;2.60;;;6.30;99.90;;;;;;5034941;28;20104;-72
2022/01/23 16:06:44;;;;;;;8.13;2.22;;;6.20;99.90;;;;;;5035074;28;20022;-73
2022/01/23 16:09:11;;;;;;;12.15;2.20;;;6.20;99.90;;;;;;5034643;28;20105;-72
2022/01/23 16:11:37;;;;;;;12.52;3.17;;;6.30;99.90;;;;;;5034886;28;20025;-72
2022/01/23 16:14:03;;;;;;;14.85;3.15;;;6.30;99.90;;;;;;5034782;28;20029;-72
2022/01/23 16:16:29;;;;;;;20.65;2.70;;;6.30;99.90;;;;;;5034845;28;20057;-73
2022/01/23 16:18:56;;;;;;;21.50;2.65;;;6.20;99.90;;;;;;5034704;28;20026;-73
2022/01/23 16:21:23;;;;;;;15.25;2.42;;;6.20;99.90;;;;;;5034501;28;20029;-73
2022/01/23 16:23:49;;;;;;;17.48;2.80;;;6.20;99.90;;;;;;5034451;28;20018;-73